createdAt,value
2022-11-24T00:02:35.682Z,93126.00
2022-11-24T00:06:38.031Z,93132.00
2022-11-24T00:11:13.105Z,93135.00
2022-11-24T00:15:37.851Z,93130.00
2022-11-24T00:19:40.029Z,93136.00
2022-11-24T00:23:49.480Z,93140.00
2022-11-24T00:28:47.417Z,93133.00
2022-11-24T00:32:52.969Z,93141.00
2022-11-24T00:36:56.962Z,93147.00
2022-11-24T00:40:58.846Z,93141.00
2022-11-24T00:45:02.122Z,93140.00
2022-11-24T00:49:14.820Z,93139.00
2022-11-24T00:53:16.818Z,93144.00
2022-11-24T00:57:19.001Z,93143.00
2022-11-24T01:01:58.664Z,93145.00
2022-11-24T01:12:51.334Z,93159.00
2022-11-24T01:16:53.876Z,93151.00
2022-11-24T01:21:08.641Z,93155.00
2022-11-24T01:25:12.418Z,93160.00
2022-11-24T01:29:15.607Z,93162.00
2022-11-24T01:33:17.677Z,93165.00
2022-11-24T01:37:19.641Z,93176.00
2022-11-24T01:41:24.161Z,93171.00
2022-11-24T01:45:40.810Z,93179.00
2022-11-24T01:49:56.136Z,93179.00
2022-11-24T01:54:06.111Z,93175.00
2022-11-24T01:58:14.523Z,93174.00
2022-11-24T02:02:54.330Z,93178.00
2022-11-24T02:07:01.266Z,93179.00
2022-11-24T02:11:05.666Z,93182.00
2022-11-24T02:15:16.040Z,93170.00
2022-11-24T02:19:30.678Z,93169.00
2022-11-24T02:24:02.569Z,93178.00
2022-11-24T02:28:08.096Z,93172.00
2022-11-24T02:32:11.696Z,93173.00
2022-11-24T02:36:13.561Z,93178.00
2022-11-24T02:40:18.737Z,93177.00
2022-11-24T02:44:24.191Z,93174.00
2022-11-24T02:48:26.169Z,93180.00
2022-11-24T02:52:28.339Z,93182.00
2022-11-24T02:56:31.593Z,93175.00
2022-11-24T03:00:37.777Z,93178.00
2022-11-24T03:04:41.836Z,93168.00
2022-11-24T03:08:44.080Z,93174.00
2022-11-24T03:12:57.532Z,93178.00
2022-11-24T03:17:01.875Z,93175.00
2022-11-24T03:21:03.912Z,93185.00
2022-11-24T03:25:10.694Z,93174.00
2022-11-24T03:29:52.354Z,93186.00
2022-11-24T03:33:54.349Z,93190.00
2022-11-24T03:38:03.395Z,93188.00
2022-11-24T03:42:05.570Z,93198.00
2022-11-24T03:46:08.804Z,93206.00
2022-11-24T03:50:14.506Z,93222.00
2022-11-24T03:54:16.661Z,93220.00
2022-11-24T03:58:19.819Z,93220.00
2022-11-24T04:02:35.035Z,93225.00
2022-11-24T04:06:37.400Z,93232.00
2022-11-24T04:10:40.048Z,93243.00
2022-11-24T04:14:41.940Z,93241.00
2022-11-24T04:19:11.583Z,93244.00
2022-11-24T04:23:13.494Z,93253.00
2022-11-24T04:27:15.481Z,93252.00
2022-11-24T04:31:18.480Z,93245.00
2022-11-24T04:35:33.998Z,93262.00
2022-11-24T04:39:36.029Z,93263.00
2022-11-24T04:43:49.208Z,93271.00
2022-11-24T04:48:16.269Z,93284.00
2022-11-24T04:52:19.669Z,93286.00
2022-11-24T04:56:50.553Z,93293.00
2022-11-24T05:01:34.384Z,93300.00
2022-11-24T05:05:40.537Z,93298.00
2022-11-24T05:10:03.132Z,93307.00
2022-11-24T05:15:02.298Z,93315.00
2022-11-24T05:19:33.128Z,93312.00
2022-11-24T05:23:35.022Z,93325.00
2022-11-24T05:27:36.984Z,93325.00
2022-11-24T05:31:39.025Z,93331.00
2022-11-24T05:36:07.539Z,93332.00
2022-11-24T05:40:09.659Z,93344.00
2022-11-24T05:44:11.791Z,93344.00
2022-11-24T05:48:16.281Z,93346.00
2022-11-24T05:53:23.908Z,93348.00
2022-11-24T05:57:26.028Z,93355.00
2022-11-24T06:01:48.212Z,93366.00
2022-11-24T06:05:50.191Z,93378.00
2022-11-24T06:09:52.543Z,93379.00
2022-11-24T06:14:20.403Z,93390.00
2022-11-24T06:18:22.443Z,93388.00
2022-11-24T06:22:24.682Z,93399.00
2022-11-24T06:26:37.999Z,93401.00
2022-11-24T06:30:44.693Z,93422.00
2022-11-24T06:34:46.759Z,93418.00
2022-11-24T06:38:48.893Z,93422.00
2022-11-24T06:42:52.430Z,93427.00
2022-11-24T06:46:54.293Z,93434.00
2022-11-24T06:51:27.083Z,93447.00
2022-11-24T06:55:30.615Z,93445.00
2022-11-24T06:59:59.113Z,93446.00
2022-11-24T07:04:11.566Z,93442.00
2022-11-24T07:08:17.771Z,93440.00
2022-11-24T07:12:24.367Z,93442.00
2022-11-24T07:16:27.266Z,93458.00
2022-11-24T07:20:29.611Z,93460.00
2022-11-24T07:25:02.822Z,93464.00
2022-11-24T07:29:05.525Z,93457.00
2022-11-24T07:33:07.579Z,93463.00
2022-11-24T07:37:09.434Z,93451.00
2022-11-24T07:41:13.308Z,93469.00
2022-11-24T07:45:17.581Z,93468.00
2022-11-24T07:49:19.998Z,93464.00
2022-11-24T07:53:21.892Z,93470.00
2022-11-24T07:57:24.004Z,93480.00
2022-11-24T08:07:21.649Z,93485.00
2022-11-24T08:11:52.449Z,93494.00
2022-11-24T08:15:57.437Z,93485.00
2022-11-24T08:19:59.263Z,93494.00
2022-11-24T08:24:01.481Z,93482.00
2022-11-24T08:28:04.457Z,93486.00
2022-11-24T08:32:29.399Z,93497.00
2022-11-24T08:36:35.099Z,93494.00
2022-11-24T08:41:16.253Z,93482.00
2022-11-24T08:45:46.229Z,93487.00
2022-11-24T08:50:01.417Z,93487.00
2022-11-24T08:54:31.242Z,93495.00
2022-11-24T08:58:40.728Z,93499.00
2022-11-24T09:02:43.323Z,93502.00
2022-11-24T09:06:45.403Z,93502.00
2022-11-24T09:10:47.562Z,93509.00
2022-11-24T09:15:28.208Z,93519.00
2022-11-24T09:19:57.249Z,93524.00
2022-11-24T09:24:00.485Z,93516.00
2022-11-24T09:28:02.579Z,93527.00
2022-11-24T09:32:07.023Z,93528.00
2022-11-24T09:37:01.109Z,93532.00
2022-11-24T09:41:38.508Z,93520.00
2022-11-24T09:46:06.298Z,93529.00
2022-11-24T09:50:35.275Z,93522.00
2022-11-24T09:54:50.294Z,93528.00
2022-11-24T09:59:06.491Z,93534.00
2022-11-24T10:03:42.121Z,93529.00
2022-11-24T10:08:13.579Z,93528.00
2022-11-24T10:12:44.885Z,93530.00
2022-11-24T10:16:57.370Z,93540.00
2022-11-24T10:21:45.253Z,93544.00
2022-11-24T10:26:00.116Z,93536.00
2022-11-24T10:30:02.173Z,93528.00
2022-11-24T10:34:21.250Z,93544.00
2022-11-24T10:39:00.054Z,93542.00
2022-11-24T10:43:02.043Z,93531.00
2022-11-24T10:47:22.981Z,93529.00
2022-11-24T10:57:31.151Z,93526.00
2022-11-24T11:01:35.912Z,93531.00
2022-11-24T11:06:06.040Z,93529.00
2022-11-24T11:10:40.010Z,93525.00
2022-11-24T11:14:49.288Z,93540.00
2022-11-24T11:18:51.853Z,93531.00
2022-11-24T11:22:56.172Z,93538.00
2022-11-24T11:27:04.286Z,93544.00
2022-11-24T11:31:23.944Z,93555.00
2022-11-24T11:35:33.664Z,93534.00
2022-11-24T11:39:48.481Z,93547.00
2022-11-24T11:44:35.888Z,93571.00
2022-11-24T11:49:01.291Z,93555.00
2022-11-24T11:53:23.268Z,93564.00
2022-11-24T11:58:04.583Z,93565.00
2022-11-24T12:02:40.421Z,93567.00
2022-11-24T12:06:56.820Z,93563.00
2022-11-24T12:11:08.230Z,93569.00
2022-11-24T12:15:38.326Z,93548.00
2022-11-24T12:20:28.717Z,93564.00
2022-11-24T12:30:13.552Z,93561.00
2022-11-24T12:34:26.508Z,93559.00
2022-11-24T12:38:34.386Z,93566.00
2022-11-24T12:43:20.213Z,93561.00
2022-11-24T12:47:57.109Z,93554.00
2022-11-24T12:52:25.230Z,93552.00
2022-11-24T12:56:43.091Z,93556.00
2022-11-24T13:01:21.609Z,93561.00
2022-11-24T13:05:52.558Z,93573.00
2022-11-24T13:10:40.117Z,93573.00
2022-11-24T13:14:48.476Z,93577.00
2022-11-24T13:19:31.260Z,93571.00
2022-11-24T13:23:34.453Z,93578.00
2022-11-24T13:27:42.936Z,93586.00
2022-11-24T13:31:47.886Z,93582.00
2022-11-24T13:36:02.659Z,93583.00
2022-11-24T13:40:14.108Z,93583.00
2022-11-24T13:44:15.979Z,93585.00
2022-11-24T13:48:24.846Z,93581.00
2022-11-24T13:53:02.283Z,93583.00
2022-11-24T13:57:36.573Z,93597.00
2022-11-24T14:01:40.966Z,93598.00
2022-11-24T14:05:49.311Z,93602.00
2022-11-24T14:10:22.335Z,93598.00
2022-11-24T14:14:52.580Z,93597.00
2022-11-24T14:19:56.650Z,93612.00
2022-11-24T14:24:25.412Z,93595.00
2022-11-24T14:28:33.942Z,93606.00
2022-11-24T14:33:25.834Z,93617.00
2022-11-24T14:37:27.977Z,93619.00
2022-11-24T14:41:30.917Z,93624.00
2022-11-24T14:45:34.900Z,93647.00
2022-11-24T14:50:10.379Z,93632.00
2022-11-24T14:54:19.535Z,93638.00
2022-11-24T14:58:42.220Z,93634.00
2022-11-24T15:02:48.053Z,93654.00
2022-11-24T15:07:27.397Z,93656.00
2022-11-24T15:11:34.263Z,93664.00
2022-11-24T15:15:38.938Z,93657.00
2022-11-24T15:20:19.191Z,93663.00
2022-11-24T15:24:49.681Z,93664.00
2022-11-24T15:28:58.774Z,93663.00
2022-11-24T15:33:00.643Z,93671.00
2022-11-24T15:37:02.474Z,93677.00
2022-11-24T15:41:17.561Z,93685.00
2022-11-24T15:45:21.990Z,93687.00
2022-11-24T15:49:50.150Z,93693.00
2022-11-24T15:54:01.281Z,93706.00
2022-11-24T15:58:03.490Z,93713.00
2022-11-24T16:02:05.765Z,93726.00
2022-11-24T16:06:13.169Z,93726.00
2022-11-24T16:10:30.548Z,93733.00
2022-11-24T16:14:57.881Z,93733.00
2022-11-24T16:18:59.852Z,93735.00
2022-11-24T16:23:03.206Z,93744.00
2022-11-24T16:27:14.243Z,93743.00
2022-11-24T16:31:16.760Z,93746.00
2022-11-24T16:35:27.993Z,93752.00
2022-11-24T16:39:32.202Z,93759.00
2022-11-24T16:43:35.245Z,93759.00
2022-11-24T16:47:41.867Z,93758.00
2022-11-24T16:51:43.816Z,93758.00
2022-11-24T16:55:59.829Z,93765.00
2022-11-24T17:00:01.983Z,93760.00
2022-11-24T17:04:32.676Z,93761.00
2022-11-24T17:08:41.771Z,93764.00
2022-11-24T17:12:44.971Z,93767.00
2022-11-24T17:16:46.954Z,93768.00
2022-11-24T17:20:52.599Z,93770.00
2022-11-24T17:24:54.441Z,93777.00
2022-11-24T17:28:56.596Z,93784.00
2022-11-24T17:33:19.233Z,93792.00
2022-11-24T17:37:46.215Z,93790.00
2022-11-24T17:42:03.876Z,93804.00
2022-11-24T17:46:05.978Z,93806.00
2022-11-24T17:50:08.531Z,93804.00
2022-11-24T17:54:39.156Z,93807.00
2022-11-24T17:58:38.343Z,93819.00
2022-11-24T18:02:44.339Z,93830.00
2022-11-24T18:06:47.607Z,93821.00
2022-11-24T18:11:28.828Z,93826.00
2022-11-24T18:15:35.084Z,93827.00
2022-11-24T18:19:46.524Z,93840.00
2022-11-24T18:23:48.427Z,93853.00
2022-11-24T18:28:00.718Z,93852.00
2022-11-24T18:32:02.635Z,93865.00
2022-11-24T18:36:45.273Z,93870.00
2022-11-24T18:41:01.017Z,93866.00
2022-11-24T18:45:05.992Z,93865.00
2022-11-24T18:49:07.873Z,93861.00
2022-11-24T18:53:09.976Z,93873.00
2022-11-24T18:57:11.895Z,93865.00
2022-11-24T19:01:19.801Z,93865.00
2022-11-24T19:05:27.590Z,93859.00
2022-11-24T19:09:29.697Z,93868.00
2022-11-24T19:13:31.591Z,93855.00
2022-11-24T19:17:33.722Z,93877.00
2022-11-24T19:22:01.283Z,93877.00
2022-11-24T19:26:04.677Z,93884.00
2022-11-24T19:30:07.441Z,93887.00
2022-11-24T19:34:09.783Z,93881.00
2022-11-24T19:38:16.280Z,93880.00
2022-11-24T19:42:18.376Z,93900.00
2022-11-24T19:46:21.967Z,93890.00
2022-11-24T19:50:44.167Z,93899.00
2022-11-24T19:54:46.642Z,93905.00
2022-11-24T19:58:53.551Z,93907.00
2022-11-24T20:02:58.899Z,93922.00
2022-11-24T20:07:00.845Z,93910.00
2022-11-24T20:11:19.143Z,93924.00
2022-11-24T20:15:21.116Z,93924.00
2022-11-24T20:19:23.052Z,93927.00
2022-11-24T20:23:24.874Z,93919.00
2022-11-24T20:27:26.777Z,93934.00
2022-11-24T20:31:32.134Z,93937.00
2022-11-24T20:35:43.637Z,93952.00
2022-11-24T20:39:45.639Z,93949.00
2022-11-24T20:43:48.410Z,93961.00
2022-11-24T20:47:50.553Z,93954.00
2022-11-24T20:51:54.622Z,93950.00
2022-11-24T20:56:24.580Z,93953.00
2022-11-24T21:00:44.116Z,93951.00
2022-11-24T21:04:46.191Z,93956.00
2022-11-24T21:09:05.889Z,93950.00
2022-11-24T21:14:17.978Z,93968.00
2022-11-24T21:18:23.995Z,93963.00
2022-11-24T21:22:25.907Z,93970.00
2022-11-24T21:26:28.294Z,93972.00
2022-11-24T21:31:08.699Z,93974.00
2022-11-24T21:35:15.021Z,93980.00
2022-11-24T21:39:17.010Z,93981.00
2022-11-24T21:43:19.192Z,93991.00
2022-11-24T21:47:23.160Z,93997.00
2022-11-24T21:51:55.962Z,93992.00
2022-11-24T21:56:05.480Z,94003.00
2022-11-24T22:00:07.940Z,94005.00
2022-11-24T22:04:37.811Z,94000.00
2022-11-24T22:08:40.070Z,93996.00
2022-11-24T22:12:42.045Z,94003.00
2022-11-24T22:16:47.862Z,93994.00
2022-11-24T22:21:07.385Z,93995.00
2022-11-24T22:25:09.634Z,93995.00
2022-11-24T22:29:53.951Z,94003.00
2022-11-24T22:34:00.837Z,94004.00
2022-11-24T22:38:02.681Z,94014.00
2022-11-24T22:42:04.882Z,94019.00
2022-11-24T22:46:11.003Z,94009.00
2022-11-24T22:50:13.866Z,94018.00
2022-11-24T22:54:31.295Z,94011.00
2022-11-24T22:58:39.602Z,94011.00
2022-11-24T23:02:41.651Z,94002.00
2022-11-24T23:18:30.363Z,94007.00
2022-11-24T23:22:58.657Z,94010.00
2022-11-24T23:27:28.601Z,94010.00
2022-11-24T23:31:30.538Z,94015.00
2022-11-24T23:35:33.714Z,94019.00
2022-11-24T23:39:38.705Z,94019.00
2022-11-24T23:43:44.575Z,94010.00
2022-11-24T23:47:46.630Z,94014.00
2022-11-24T23:52:01.293Z,94025.00
